Time;durP1;ratioP1;P1;durP2;ratioP2;P2;SDS_P1;SDS_P2;PMS_P1;PMS_P2;Temp;Humidity;BMP_temperature;BMP_pressure;BME280_temperature;BME280_humidity;BME280_pressure;Samples;Min_cycle;Max_cycle;Signal;HPM_P1;HPM_P2
2023/11/15 00:01:04;;;;;;;0.25;0.25;;;;;;;9.01;100.00;99143.22;7401008;19;20021;-60
2023/11/15 00:03:30;;;;;;;0.17;0.17;;;;;;;9.08;100.00;99151.16;7398280;19;20023;-59
2023/11/15 00:05:56;;;;;;;0.20;0.05;;;;;;;9.06;100.00;99150.13;7397417;19;20078;-59
2023/11/15 00:08:22;;;;;;;0.10;0.10;;;;;;;9.07;100.00;99146.84;7398427;19;20027;-59
2023/11/15 00:10:48;;;;;;;0.10;0.00;;;;;;;9.05;100.00;99154.91;7397736;19;20018;-59
2023/11/15 00:13:15;;;;;;;0.45;0.45;;;;;;;8.84;100.00;99156.09;7399406;19;20078;-59
2023/11/15 00:15:41;;;;;;;0.20;0.20;;;;;;;8.90;100.00;99154.16;7397837;19;20017;-59
2023/11/15 00:18:07;;;;;;;0.10;0.10;;;;;;;8.78;100.00;99165.56;7398020;19;20011;-59
2023/11/15 00:20:33;;;;;;;3.50;0.32;;;;;;;8.82;100.00;99168.91;7395672;19;20034;-59
2023/11/15 00:23:01;;;;;;;9.00;1.27;;;;;;;14.02;100.00;99154.59;7395416;19;20480;-59
2023/11/15 00:25:28;;;;;;;4.28;0.45;;;;;;;10.09;100.00;99151.22;7401303;19;20015;-59
2023/11/15 00:27:57;;;;;;;0.10;0.05;;;;;;;9.52;100.00;99161.38;7398254;19;20028;-59
2023/11/15 00:30:24;;;;;;;0.10;0.10;;;;;;;9.43;100.00;99167.06;7395331;19;20524;-59
2023/11/15 00:32:50;;;;;;;0.10;0.00;;;;;;;9.67;100.00;99156.53;7397250;19;20054;-59
2023/11/15 00:35:16;;;;;;;0.10;0.10;;;;;;;9.55;100.00;99166.00;7397362;19;20035;-59
2023/11/15 00:37:43;;;;;;;5.25;1.25;;;;;;;9.32;100.00;99172.47;7401529;19;20031;-59
2023/11/15 00:40:14;;;;;;;0.10;0.00;;;;;;;9.56;100.00;99164.72;7396051;19;20014;-59
2023/11/15 00:42:42;;;;;;;0.10;0.10;;;;;;;10.23;100.00;99167.09;7396149;19;20018;-59
2023/11/15 00:45:10;;;;;;;0.52;0.20;;;;;;;9.57;100.00;99171.81;7395292;19;20357;-59
2023/11/15 00:47:36;;;;;;;0.68;0.30;;;;;;;9.35;100.00;99174.28;7396305;19;20022;-59
2023/11/15 00:50:04;;;;;;;0.10;0.10;;;;;;;9.35;100.00;99177.84;7400434;19;20014;-59
2023/11/15 00:52:31;;;;;;;0.10;0.00;;;;;;;9.61;100.00;99172.38;7396740;19;20010;-59
2023/11/15 00:54:57;;;;;;;0.13;0.13;;;;;;;9.24;100.00;99176.91;7396897;19;20018;-59
2023/11/15 00:57:23;;;;;;;0.10;0.10;;;;;;;9.54;100.00;99186.69;7396392;19;20372;-60
2023/11/15 00:59:53;;;;;;;0.10;0.00;;;;;;;9.40;100.00;99182.69;7393871;19;20014;-59
2023/11/15 01:02:20;;;;;;;0.20;0.20;;;;;;;9.56;100.00;99181.41;7400353;19;20062;-59
2023/11/15 01:04:49;;;;;;;0.10;0.10;;;;;;;9.26;100.00;99193.84;7396802;19;20062;-59
2023/11/15 01:07:15;;;;;;;0.10;0.10;;;;;;;9.42;100.00;99198.91;7396083;19;20085;-59
2023/11/15 01:09:41;;;;;;;0.10;0.00;;;;;;;9.49;100.00;99204.81;7396001;19;20007;-59
2023/11/15 01:12:07;;;;;;;0.10;0.10;;;;;;;9.42;100.00;99204.47;7394949;19;20014;-59
2023/11/15 01:14:34;;;;;;;0.52;0.10;;;;;;;9.32;100.00;99194.69;7400581;19;20006;-59
2023/11/15 01:17:00;;;;;;;0.30;0.10;;;;;;;9.26;100.00;99191.06;7396489;19;20018;-59
2023/11/15 01:19:26;;;;;;;0.10;0.00;;;;;;;9.26;100.00;99196.63;7395034;19;20018;-59
2023/11/15 01:21:53;;;;;;;0.10;0.10;;;;;;;9.27;100.00;99195.41;7396173;19;20325;-59
2023/11/15 01:24:19;;;;;;;0.28;0.20;;;;;;;9.30;100.00;99199.97;7393431;19;20482;-59
2023/11/15 01:26:45;;;;;;;0.30;0.30;;;;;;;9.21;100.00;99200.09;7394713;19;20018;-59
2023/11/15 01:29:11;;;;;;;0.10;0.03;;;;;;;9.35;100.00;99213.19;7393818;19;20520;-59
2023/11/15 01:31:38;;;;;;;0.38;0.20;;;;;;;9.12;100.00;99212.84;7394144;19;20018;-59
2023/11/15 01:34:05;;;;;;;0.10;0.10;;;;;;;9.02;100.00;99214.22;7395023;19;20011;-59
2023/11/15 01:36:32;;;;;;;0.10;0.10;;;;;;;8.95;100.00;99211.81;7394819;19;20060;-59
2023/11/15 01:38:58;;;;;;;0.43;0.32;;;;;;;9.04;100.00;99222.03;7393480;19;20022;-59
2023/11/15 01:41:25;;;;;;;0.10;0.00;;;;;;;9.28;100.00;99221.91;7394119;19;20013;-59
2023/11/15 01:43:51;;;;;;;0.98;0.28;;;;;;;9.38;100.00;99220.53;7393964;19;20007;-59
2023/11/15 01:46:18;;;;;;;0.10;0.10;;;;;;;9.36;100.00;99234.94;7393883;19;20078;-59
2023/11/15 01:48:44;;;;;;;0.10;0.10;;;;;;;9.31;100.00;99238.41;7393940;19;20014;-59
2023/11/15 01:51:10;;;;;;;0.10;0.10;;;;;;;9.20;100.00;99245.78;7393903;19;20401;-59
2023/11/15 01:53:38;;;;;;;2.00;1.08;;;;;;;9.24;100.00;99241.56;7395300;19;20010;-59
2023/11/15 01:56:07;;;;;;;0.10;0.10;;;;;;;9.18;100.00;99239.94;7397321;19;20107;-59
2023/11/15 01:58:33;;;;;;;0.10;0.00;;;;;;;9.82;100.00;99243.44;7391907;19;20649;-60
2023/11/15 02:01:03;;;;;;;0.30;0.10;;;;;;;10.06;100.00;99241.22;7393587;19;20474;-59
2023/11/15 02:03:29;;;;;;;0.10;0.00;;;;;;;10.02;100.00;99239.91;7394530;19;20017;-59
2023/11/15 02:05:55;;;;;;;0.35;0.30;;;;;;;10.32;100.00;99230.94;7392550;19;20025;-59
2023/11/15 02:08:21;;;;;;;0.10;0.10;;;;;;;10.15;100.00;99241.13;7392457;19;20032;-59
2023/11/15 02:10:48;;;;;;;0.10;0.10;;;;;;;9.80;100.00;99240.38;7393408;19;20035;-59
2023/11/15 02:13:22;;;;;;;0.20;0.13;;;;;;;9.91;100.00;99246.09;7395358;19;20011;-59
2023/11/15 02:15:49;;;;;;;0.10;0.10;;;;;;;9.81;100.00;99248.22;7392532;19;20013;-59
2023/11/15 02:18:17;;;;;;;0.30;0.10;;;;;;;9.58;100.00;99251.94;7393481;19;20031;-59
2023/11/15 02:20:43;;;;;;;0.30;0.30;;;;;;;10.08;100.00;99252.63;7391804;19;20344;-59
2023/11/15 02:23:12;;;;;;;0.10;0.10;;;;;;;9.89;100.00;99254.16;7394413;19;20038;-59
2023/11/15 02:25:40;;;;;;;0.30;0.28;;;;;;;9.89;100.00;99259.72;7394934;19;20011;-59
2023/11/15 02:28:08;;;;;;;0.28;0.20;;;;;;;10.40;100.00;99251.53;7392051;19;20033;-59
2023/11/15 02:30:34;;;;;;;0.10;0.10;;;;;;;11.39;100.00;99248.16;7393843;19;20340;-59
2023/11/15 02:33:00;;;;;;;0.17;0.17;;;;;;;10.41;100.00;99244.72;7394695;19;20090;-59
2023/11/15 02:35:27;;;;;;;0.10;0.10;;;;;;;10.85;100.00;99249.22;7393691;19;20486;-60
2023/11/15 02:37:53;;;;;;;0.20;0.20;;;;;;;10.80;100.00;99247.13;7393130;19;20028;-60
2023/11/15 02:40:19;;;;;;;7.43;0.30;;;;;;;11.33;100.00;99244.53;7392142;19;20019;-60
2023/11/15 02:42:45;;;;;;;0.40;0.28;;;;;;;11.45;100.00;99246.16;7392658;19;20078;-60
2023/11/15 02:45:11;;;;;;;0.10;0.00;;;;;;;11.25;100.00;99243.47;7393692;19;20014;-61
2023/11/15 02:47:37;;;;;;;0.10;0.10;;;;;;;9.49;100.00;99242.94;7393379;19;20006;-60
2023/11/15 02:50:04;;;;;;;0.10;0.10;;;;;;;9.87;100.00;99256.66;7393764;19;20074;-60
2023/11/15 02:52:30;;;;;;;0.10;0.03;;;;;;;11.94;100.00;99244.97;7391273;19;20084;-61
2023/11/15 02:54:58;;;;;;;9.23;0.50;;;;;;;11.76;100.00;99254.50;7393354;19;20036;-61
2023/11/15 02:57:24;;;;;;;0.25;0.25;;;;;;;12.40;100.00;99251.00;7391199;19;20014;-60
2023/11/15 02:59:50;;;;;;;0.50;0.50;;;;;;;13.10;100.00;99247.38;7390993;19;20018;-60
2023/11/15 03:02:16;;;;;;;1.17;0.38;;;;;;;12.13;100.00;99243.28;7392307;19;20011;-60
2023/11/15 03:04:43;;;;;;;0.10;0.10;;;;;;;13.31;100.00;99246.63;7391536;19;20019;-59
2023/11/15 03:07:09;;;;;;;0.10;0.00;;;;;;;13.18;100.00;99251.94;7393050;19;20007;-61
2023/11/15 03:09:35;;;;;;;0.10;0.10;;;;;;;12.63;100.00;99252.59;7392141;19;20011;-60
2023/11/15 03:12:03;;;;;;;0.10;0.10;;;;;;;12.89;100.00;99252.38;7390688;19;20014;-60
2023/11/15 03:14:30;;;;;;;0.15;0.15;;;;;;;13.92;100.00;99256.94;7390634;19;20804;-60
2023/11/15 03:17:06;;;;;;;0.10;0.00;;;;;;;12.10;100.00;99261.81;7391101;19;20018;-60
2023/11/15 03:19:33;;;;;;;0.17;0.08;;;;;;;13.42;100.00;99254.22;7394100;19;20010;-60
2023/11/15 03:21:59;;;;;;;0.10;0.10;;;;;;;13.74;100.00;99257.50;7398783;19;20014;-60
2023/11/15 03:24:25;;;;;;;0.10;0.10;;;;;;;13.75;100.00;99268.19;7398364;19;20015;-60
2023/11/15 03:26:54;;;;;;;0.10;0.00;;;;;;;26.99;95.01;99254.78;7398895;19;20019;-60
2023/11/15 03:29:20;;;;;;;0.82;0.20;;;;;;;39.05;34.84;99217.56;7403276;19;20035;-60
2023/11/15 03:31:46;;;;;;;0.75;0.75;;;;;;;41.75;28.82;99222.53;7399537;19;20078;-61
2023/11/15 03:34:12;;;;;;;0.10;0.00;;;;;;;22.17;55.79;99256.16;7400193;19;20014;-62
2023/11/15 03:36:40;;;;;;;0.32;0.32;;;;;;;13.80;100.00;99277.81;7399132;19;20443;-60
2023/11/15 03:39:08;;;;;;;0.10;0.10;;;;;;;11.96;100.00;99282.28;7398205;19;20015;-60
2023/11/15 03:41:34;;;;;;;3.35;0.47;;;;;;;10.87;100.00;99285.69;7403395;19;20044;-62
2023/11/15 03:44:01;;;;;;;0.13;0.13;;;;;;;10.29;100.00;99282.00;7399584;19;20026;-61
2023/11/15 03:46:27;;;;;;;0.20;0.20;;;;;;;9.98;100.00;99284.63;7398820;19;20018;-61
2023/11/15 03:48:53;;;;;;;0.50;0.43;;;;;;;9.71;100.00;99288.53;7397668;19;20070;-61
2023/11/15 03:51:20;;;;;;;0.10;0.10;;;;;;;9.61;100.00;99284.34;7398118;19;20014;-61
2023/11/15 03:53:46;;;;;;;3.10;0.50;;;;;;;9.61;100.00;99289.91;7401584;19;20371;-61
2023/11/15 03:56:12;;;;;;;0.50;0.30;;;;;;;9.57;100.00;99299.69;7403055;19;20043;-60
2023/11/15 03:58:40;;;;;;;0.15;0.08;;;;;;;9.43;100.00;99300.47;7398374;19;20015;-60
2023/11/15 04:01:08;;;;;;;0.10;0.00;;;;;;;8.94;100.00;99304.69;7402109;19;20018;-60
2023/11/15 04:03:34;;;;;;;1.85;0.52;;;;;;;8.86;100.00;99309.09;7400989;19;20495;-60
2023/11/15 04:06:03;;;;;;;0.10;0.10;;;;;;;8.93;100.00;99311.50;7396386;19;20011;-60
2023/11/15 04:08:30;;;;;;;7.22;0.35;;;;;;;8.85;100.00;99313.13;7397667;19;20026;-60
2023/11/15 04:10:57;;;;;;;0.10;0.10;;;;;;;8.84;100.00;99317.13;7395953;19;20014;-60
2023/11/15 04:13:24;;;;;;;2.20;0.47;;;;;;;8.95;100.00;99322.88;7397830;19;20044;-61
2023/11/15 04:15:51;;;;;;;0.10;0.10;;;;;;;9.14;100.00;99329.78;7400754;19;20354;-61
2023/11/15 04:18:17;;;;;;;0.13;0.10;;;;;;;8.94;100.00;99332.44;7398105;19;20412;-61
2023/11/15 04:20:43;;;;;;;0.10;0.10;;;;;;;9.08;100.00;99334.50;7393351;19;20018;-61
2023/11/15 04:23:10;;;;;;;0.57;0.30;;;;;;;9.11;100.00;99325.22;7397828;19;20015;-60
2023/11/15 04:25:36;;;;;;;0.10;0.10;;;;;;;8.78;100.00;99324.59;7397456;19;20011;-60
2023/11/15 04:28:04;;;;;;;0.25;0.20;;;;;;;8.59;100.00;99326.00;7400961;19;20074;-60
2023/11/15 04:30:31;;;;;;;0.20;0.20;;;;;;;8.36;100.00;99335.84;7396441;19;20007;-60
2023/11/15 04:32:57;;;;;;;0.10;0.10;;;;;;;8.39;100.00;99339.69;7395456;19;20014;-60
2023/11/15 04:35:23;;;;;;;0.22;0.22;;;;;;;8.58;100.00;99343.88;7396594;19;20040;-60
2023/11/15 04:37:49;;;;;;;0.10;0.10;;;;;;;8.60;100.00;99335.84;7397419;19;20091;-60
2023/11/15 04:40:15;;;;;;;0.10;0.10;;;;;;;8.39;100.00;99350.81;7395378;19;20010;-60
2023/11/15 04:42:41;;;;;;;0.10;0.10;;;;;;;8.40;100.00;99360.66;7397204;19;20014;-60
2023/11/15 04:45:09;;;;;;;0.32;0.32;;;;;;;8.45;100.00;99362.78;7397380;19;20046;-60
2023/11/15 04:47:35;;;;;;;0.10;0.10;;;;;;;8.52;100.00;99359.66;7398348;19;20011;-60
2023/11/15 04:50:02;;;;;;;12.07;0.70;;;;;;;8.68;100.00;99342.56;7399873;19;20487;-60
2023/11/15 04:52:28;;;;;;;0.25;0.25;;;;;;;8.59;100.00;99350.19;7399069;19;20376;-60
2023/11/15 04:54:54;;;;;;;4.50;0.38;;;;;;;8.26;100.00;99353.03;7398305;19;20007;-60
2023/11/15 04:57:25;;;;;;;0.22;0.20;;;;;;;8.23;100.00;99356.72;7400144;19;20017;-60
2023/11/15 04:59:55;;;;;;;0.17;0.10;;;;;;;8.44;100.00;99354.94;7396004;19;20403;-60
2023/11/15 05:02:22;;;;;;;0.10;0.00;;;;;;;8.45;100.00;99362.78;7398967;19;20416;-60
2023/11/15 05:04:49;;;;;;;0.65;0.20;;;;;;;8.62;100.00;99365.91;7398847;19;20023;-60
2023/11/15 05:07:15;;;;;;;0.10;0.00;;;;;;;8.68;100.00;99353.69;7399114;19;20339;-60
2023/11/15 05:09:41;;;;;;;0.10;0.03;;;;;;;8.46;100.00;99364.31;7398009;19;20022;-60
2023/11/15 05:12:08;;;;;;;0.20;0.20;;;;;;;8.03;100.00;99373.19;7393708;19;20015;-60
2023/11/15 05:14:36;;;;;;;0.10;0.10;;;;;;;8.31;100.00;99369.03;7393595;19;20015;-60
2023/11/15 05:17:03;;;;;;;0.40;0.35;;;;;;;8.49;100.00;99368.16;7393930;19;20348;-60
2023/11/15 05:19:30;;;;;;;0.20;0.10;;;;;;;9.79;100.00;99361.19;7398481;19;20022;-60
2023/11/15 05:21:56;;;;;;;0.10;0.10;;;;;;;7.93;100.00;99363.34;7394627;19;20018;-60
2023/11/15 05:24:22;;;;;;;0.10;0.10;;;;;;;7.86;100.00;99360.94;7396809;19;20033;-60
2023/11/15 05:26:50;;;;;;;0.28;0.28;;;;;;;7.91;100.00;99368.59;7394709;19;20018;-60
2023/11/15 05:29:16;;;;;;;0.10;0.05;;;;;;;8.03;100.00;99362.09;7399899;19;20070;-61
2023/11/15 05:31:42;;;;;;;0.10;0.10;;;;;;;8.33;100.00;99363.78;7394432;19;20018;-60
2023/11/15 05:34:08;;;;;;;0.10;0.10;;;;;;;9.89;100.00;99351.50;7393980;19;20014;-60
2023/11/15 05:36:34;;;;;;;0.70;0.70;;;;;;;7.78;100.00;99359.72;7393313;19;20015;-60
2023/11/15 05:39:00;;;;;;;0.10;0.10;;;;;;;7.55;100.00;99375.06;7394870;19;20019;-60
2023/11/15 05:41:26;;;;;;;0.10;0.10;;;;;;;7.57;100.00;99381.69;7397619;19;20014;-60
2023/11/15 05:43:52;;;;;;;0.10;0.10;;;;;;;7.74;100.00;99375.75;7391191;19;20464;-60
2023/11/15 05:46:20;;;;;;;0.10;0.10;;;;;;;7.49;100.00;99376.94;7394675;19;20011;-60
2023/11/15 05:48:46;;;;;;;0.10;0.10;;;;;;;7.53;100.00;99377.53;7394924;19;20384;-60
2023/11/15 05:51:13;;;;;;;0.10;0.10;;;;;;;7.55;100.00;99389.69;7394934;19;20082;-60
2023/11/15 05:53:39;;;;;;;0.25;0.25;;;;;;;7.64;100.00;99389.66;7398971;19;20078;-60
2023/11/15 05:56:06;;;;;;;0.20;0.20;;;;;;;7.78;100.00;99387.44;7397908;19;20078;-60
2023/11/15 05:58:32;;;;;;;0.10;0.10;;;;;;;8.09;100.00;99401.81;7394877;19;20044;-60
2023/11/15 06:00:58;;;;;;;1.10;0.95;;;;;;;8.18;100.00;99399.75;7393276;19;20345;-60
2023/11/15 06:03:25;;;;;;;0.25;0.25;;;;;;;8.17;100.00;99391.88;7393976;19;20014;-60
2023/11/15 06:05:52;;;;;;;0.22;0.22;;;;;;;8.14;100.00;99404.69;7399087;19;20464;-60
2023/11/15 06:08:19;;;;;;;0.10;0.10;;;;;;;7.99;100.00;99397.53;7393169;19;20007;-60
2023/11/15 06:10:47;;;;;;;0.10;0.10;;;;;;;8.20;100.00;99396.50;7392077;19;20010;-60
2023/11/15 06:13:15;;;;;;;12.73;0.65;;;;;;;21.41;100.00;99370.81;7392422;19;20022;-60
2023/11/15 06:15:42;;;;;;;0.10;0.10;;;;;;;18.09;88.71;99377.47;7392043;19;20031;-60
2023/11/15 06:18:10;;;;;;;2.72;0.95;;;;;;;12.72;100.00;99389.28;7393053;19;20007;-61
2023/11/15 06:20:40;;;;;;;13.63;0.90;;;;;;;12.42;100.00;99390.13;7390057;19;20015;-61
2023/11/15 06:23:08;;;;;;;0.10;0.10;;;;;;;11.86;100.00;99386.97;7392521;19;20021;-61
2023/11/15 06:25:35;;;;;;;0.10;0.10;;;;;;;11.40;100.00;99394.66;7392935;19;20014;-61
2023/11/15 06:28:04;;;;;;;6.13;0.70;;;;;;;10.00;100.00;99404.50;7396487;19;20014;-65
2023/11/15 06:30:31;;;;;;;0.52;0.40;;;;;;;9.72;100.00;99406.09;7392428;19;20010;-61
2023/11/15 06:32:57;;;;;;;2.63;0.85;;;;;;;8.88;100.00;99406.56;7393206;19;20033;-61
2023/11/15 06:35:23;;;;;;;2.95;1.20;;;;;;;8.44;100.00;99405.66;7393384;19;20340;-63
2023/11/15 06:37:49;;;;;;;1.27;1.17;;;;;;;8.16;100.00;99418.09;7395780;19;20325;-62
2023/11/15 06:40:16;;;;;;;0.28;0.28;;;;;;;8.15;100.00;99416.56;7392312;19;20041;-61
2023/11/15 06:42:43;;;;;;;1.10;0.75;;;;;;;8.04;100.00;99424.63;7391955;19;20039;-61
2023/11/15 06:45:10;;;;;;;0.20;0.20;;;;;;;8.14;100.00;99415.03;7392996;19;20077;-61
2023/11/15 06:47:36;;;;;;;0.47;0.47;;;;;;;8.21;100.00;99431.31;7395679;19;20400;-61
2023/11/15 06:50:04;;;;;;;0.40;0.40;;;;;;;8.63;100.00;99422.94;7394229;19;20014;-62
2023/11/15 06:52:40;;;;;;;0.40;0.40;;;;;;;36.70;39.15;99382.84;7392832;19;20340;-61
2023/11/15 06:55:10;;;;;;;7.78;0.68;;;;;;;37.76;30.77;99382.81;7394858;19;20012;-61
2023/11/15 06:57:41;;;;;;;0.10;0.10;;;;;;;29.86;37.22;99396.25;7394820;19;20029;-61
2023/11/15 07:00:12;;;;;;;3.55;1.55;;;;;;;24.73;52.42;99404.56;7391440;19;20007;-61
2023/11/15 07:02:40;;;;;;;0.10;0.10;;;;;;;24.46;51.27;99402.94;7391106;19;20021;-61
2023/11/15 07:05:07;;;;;;;0.10;0.10;;;;;;;27.62;53.21;99402.31;7390668;19;20018;-62
2023/11/15 07:07:33;;;;;;;0.20;0.20;;;;;;;34.55;38.73;99382.81;7396011;19;20011;-62
2023/11/15 07:10:00;;;;;;;0.47;0.32;;;;;;;25.50;41.26;99400.28;7390803;19;20348;-62
2023/11/15 07:12:26;;;;;;;0.22;0.22;;;;;;;25.13;46.44;99403.59;7393598;19;20022;-62
2023/11/15 07:14:52;;;;;;;0.20;0.20;;;;;;;40.79;27.35;99389.06;7394312;19;20013;-62
2023/11/15 07:17:22;;;;;;;0.52;0.52;;;;;;;29.26;35.29;99408.75;7394461;19;20010;-62
2023/11/15 07:19:48;;;;;;;0.73;0.70;;;;;;;25.34;43.36;99416.06;7393246;19;20010;-62
2023/11/15 07:22:15;;;;;;;1.48;0.55;;;;;;;27.00;43.61;99413.50;7395608;19;20014;-62
2023/11/15 07:24:42;;;;;;;2.05;0.50;;;;;;;38.81;28.47;99400.50;7395205;19;20003;-62
2023/11/15 07:27:09;;;;;;;0.90;0.52;;;;;;;42.09;24.73;99400.75;7394422;19;20007;-61
2023/11/15 07:29:36;;;;;;;2.90;0.43;;;;;;;42.29;23.51;99395.16;7394150;19;20070;-61
2023/11/15 07:32:03;;;;;;;0.08;0.03;;;;;;;41.94;23.42;99404.91;7394031;19;20023;-61
2023/11/15 07:34:31;;;;;;;4.47;0.35;;;;;;;41.62;22.58;99402.22;7393785;19;20462;-62
2023/11/15 07:36:58;;;;;;;3.40;0.95;;;;;;;41.80;22.21;99407.63;7394482;19;20040;-61
2023/11/15 07:39:25;;;;;;;0.70;0.63;;;;;;;35.87;26.56;99418.78;7393123;19;20478;-62
2023/11/15 07:41:52;;;;;;;0.45;0.45;;;;;;;40.68;23.55;99410.00;7396250;19;20554;-62
2023/11/15 07:44:19;;;;;;;0.20;0.20;;;;;;;42.22;21.98;99414.09;7392959;19;20010;-61
2023/11/15 07:46:46;;;;;;;0.20;0.20;;;;;;;28.84;31.05;99426.72;7392594;19;20088;-61
2023/11/15 07:49:18;;;;;;;0.10;0.10;;;;;;;20.22;44.32;99452.34;7393075;19;20021;-61
2023/11/15 07:51:45;;;;;;;0.47;0.28;;;;;;;19.10;64.63;99467.38;7392571;19;20551;-60
2023/11/15 07:54:11;;;;;;;0.68;0.40;;;;;;;27.37;56.38;99442.72;7392207;19;20375;-61
2023/11/15 07:56:37;;;;;;;3.30;0.68;;;;;;;25.19;60.53;99453.28;7392848;19;20027;-60
2023/11/15 07:59:04;;;;;;;0.38;0.38;;;;;;;12.99;100.00;99479.31;7391635;19;20439;-60
2023/11/15 08:01:30;;;;;;;0.82;0.40;;;;;;;12.54;100.00;99472.72;7390683;19;20011;-61
2023/11/15 08:03:56;;;;;;;0.10;0.10;;;;;;;12.84;100.00;99473.94;7392285;19;20066;-61
2023/11/15 08:06:22;;;;;;;0.10;0.10;;;;;;;12.81;100.00;99478.47;7390694;19;20042;-61
2023/11/15 08:08:48;;;;;;;1.23;0.93;;;;;;;17.77;73.04;99475.34;7402485;19;20015;-61
2023/11/15 08:11:14;;;;;;;0.25;0.05;;;;;;;13.75;100.00;99482.91;7401117;19;20011;-61
2023/11/15 08:13:41;;;;;;;6.70;1.00;;;;;;;13.92;100.00;99486.50;7398949;19;20006;-61
2023/11/15 08:16:12;;;;;;;0.10;0.08;;;;;;;25.71;49.50;99458.97;7401504;19;20010;-61
2023/11/15 08:18:39;;;;;;;;;;;;;;;24.97;51.02;99470.66;7398522;19;20010;-61
2023/11/15 08:21:05;;;;;;;0.10;0.03;;;;;;;20.83;65.91;99490.38;7399414;19;19941;-61
2023/11/15 08:23:31;;;;;;;0.50;0.50;;;;;;;26.97;55.01;99482.53;7398508;19;20057;-61
2023/11/15 08:26:02;;;;;;;0.10;0.10;;;;;;;32.90;40.51;99480.22;7396474;19;20040;-60
2023/11/15 08:28:30;;;;;;;0.73;0.73;;;;;;;38.10;29.06;99461.66;7401050;19;20018;-61
2023/11/15 08:30:58;;;;;;;0.10;0.10;;;;;;;39.35;26.47;99482.78;7396163;19;20029;-61
2023/11/15 08:33:26;;;;;;;0.10;0.10;;;;;;;39.79;25.08;99468.59;7397889;19;20014;-61
2023/11/15 08:35:53;;;;;;;0.10;0.10;;;;;;;40.66;24.17;99471.31;7397989;19;20015;-61
2023/11/15 08:38:24;;;;;;;0.75;0.32;;;;;;;40.53;23.45;99463.75;7403134;19;20014;-61
2023/11/15 08:40:51;;;;;;;1.90;1.08;;;;;;;37.58;26.56;99469.41;7396449;19;20011;-61
2023/11/15 08:43:17;;;;;;;0.22;0.22;;;;;;;26.62;33.41;99484.06;7398033;19;20370;-61
2023/11/15 08:45:44;;;;;;;0.10;0.10;;;;;;;13.67;96.98;99522.56;7396519;19;20354;-61
2023/11/15 08:48:12;;;;;;;0.10;0.10;;;;;;;11.12;100.00;99522.56;7400792;19;20015;-61
2023/11/15 08:50:43;;;;;;;0.22;0.22;;;;;;;10.08;100.00;99528.06;7395722;19;20007;-62
2023/11/15 08:53:14;;;;;;;0.10;0.00;;;;;;;9.36;100.00;99531.50;7397095;19;20019;-61
2023/11/15 08:55:44;;;;;;;2.22;0.40;;;;;;;9.37;100.00;99535.81;7400327;19;20010;-61
2023/11/15 08:58:13;;;;;;;8.98;0.47;;;;;;;9.07;100.00;99546.06;7401652;19;20002;-62
2023/11/15 09:00:40;;;;;;;0.55;0.25;;;;;;;9.26;100.00;99546.72;7393712;19;20455;-60
2023/11/15 09:03:08;;;;;;;0.45;0.40;;;;;;;9.79;100.00;99550.28;7397886;19;20025;-61
2023/11/15 09:05:37;;;;;;;0.10;0.10;;;;;;;9.45;100.00;99559.22;7395993;19;20396;-61
2023/11/15 09:08:03;;;;;;;0.10;0.00;;;;;;;9.38;100.00;99554.78;7399925;19;20010;-60
2023/11/15 09:10:31;;;;;;;0.10;0.10;;;;;;;10.55;100.00;99561.25;7396668;19;20006;-61
2023/11/15 09:12:58;;;;;;;0.10;0.10;;;;;;;9.49;100.00;99559.81;7396408;19;20471;-61
2023/11/15 09:15:24;;;;;;;0.20;0.20;;;;;;;9.40;100.00;99557.13;7395548;19;20413;-61
2023/11/15 09:17:51;;;;;;;0.10;0.10;;;;;;;9.50;100.00;99551.00;7397418;19;20543;-61
2023/11/15 09:20:21;;;;;;;1.00;0.68;;;;;;;9.53;100.00;99558.38;7394651;19;20040;-61
2023/11/15 09:22:53;;;;;;;0.30;0.30;;;;;;;9.65;100.00;99567.72;7396621;19;20036;-62
2023/11/15 09:25:23;;;;;;;0.38;0.05;;;;;;;9.64;100.00;99555.81;7396086;19;20224;-61
2023/11/15 09:27:52;;;;;;;0.10;0.10;;;;;;;9.66;100.00;99558.88;7398842;19;20086;-60
2023/11/15 09:30:19;;;;;;;0.43;0.10;;;;;;;9.85;100.00;99553.94;7396478;19;20010;-61
2023/11/15 09:32:47;;;;;;;13.27;0.60;;;;;;;9.74;100.00;99554.50;7394547;19;20058;-61
2023/11/15 09:35:13;;;;;;;0.20;0.10;;;;;;;9.65;100.00;99551.03;7396266;19;20036;-60
2023/11/15 09:37:43;;;;;;;0.20;0.17;;;;;;;9.65;100.00;99562.16;7398621;19;20036;-61
2023/11/15 09:40:13;;;;;;;0.10;0.00;;;;;;;9.71;100.00;99554.69;7394576;19;20015;-60
2023/11/15 09:42:42;;;;;;;1.60;0.50;;;;;;;9.82;100.00;99558.44;7395229;19;20017;-61
2023/11/15 09:45:12;;;;;;;0.05;0.00;;;;;;;9.90;100.00;99551.25;7398179;19;20014;-61
2023/11/15 09:47:40;;;;;;;0.55;0.17;;;;;;;9.91;100.00;99566.72;7396807;19;20018;-61
2023/11/15 09:50:09;;;;;;;0.75;0.30;;;;;;;9.87;100.00;99568.88;7395049;19;20014;-62
2023/11/15 09:52:38;;;;;;;0.20;0.20;;;;;;;10.00;100.00;99568.63;7395101;19;20013;-62
2023/11/15 09:55:05;;;;;;;0.35;0.10;;;;;;;10.17;100.00;99575.28;7397643;19;20019;-63
2023/11/15 09:57:31;;;;;;;0.10;0.10;;;;;;;10.24;100.00;99572.13;7396982;19;20018;-61
2023/11/15 09:59:58;;;;;;;0.40;0.15;;;;;;;10.33;100.00;99571.25;7394161;19;20029;-61
2023/11/15 10:02:28;;;;;;;0.45;0.08;;;;;;;10.41;100.00;99584.31;7394300;19;20017;-61
2023/11/15 10:05:16;;;;;;;0.10;0.00;;;;;;;10.72;100.00;99585.81;7394903;19;20014;-61
2023/11/15 10:07:42;;;;;;;6.25;1.08;;;;;;;10.51;100.00;99587.75;7397369;19;20018;-61
2023/11/15 10:10:19;;;;;;;0.10;0.03;;;;;;;10.56;100.00;99579.50;7393197;19;20014;-61
2023/11/15 10:12:46;;;;;;;0.28;0.28;;;;;;;10.38;100.00;99579.69;7393678;19;20015;-62
2023/11/15 10:15:13;;;;;;;0.40;0.20;;;;;;;10.36;100.00;99593.31;7394362;19;20019;-61
2023/11/15 10:17:42;;;;;;;0.10;0.05;;;;;;;10.34;100.00;99595.81;7397028;19;20014;-60
2023/11/15 10:20:25;;;;;;;0.17;0.10;;;;;;;10.59;100.00;99600.78;7392880;19;20249;-60
2023/11/15 10:22:53;;;;;;;0.35;0.28;;;;;;;10.48;100.00;99600.59;7391493;19;20006;-61
2023/11/15 10:25:20;;;;;;;0.80;0.43;;;;;;;10.57;100.00;99602.53;7394247;19;20010;-61
2023/11/15 10:27:50;;;;;;;0.10;0.05;;;;;;;10.45;100.00;99590.44;7396378;19;20018;-60
2023/11/15 10:30:20;;;;;;;0.10;0.10;;;;;;;10.39;100.00;99592.38;7393353;19;20015;-60
2023/11/15 10:32:46;;;;;;;0.10;0.10;;;;;;;10.47;100.00;99598.31;7392128;19;20032;-61
2023/11/15 10:35:29;;;;;;;0.15;0.15;;;;;;;10.50;100.00;99600.88;7394270;19;20381;-61
2023/11/15 10:37:55;;;;;;;1.45;0.65;;;;;;;10.32;100.00;99598.31;7394761;19;20018;-61
2023/11/15 10:40:25;;;;;;;5.93;0.63;;;;;;;10.37;100.00;99600.41;7392170;19;20501;-61
2023/11/15 10:42:53;;;;;;;0.10;0.10;;;;;;;10.66;100.00;99605.19;7393674;19;20010;-62
2023/11/15 10:45:22;;;;;;;0.10;0.10;;;;;;;10.75;100.00;99593.19;7393894;19;20027;-61
2023/11/15 10:47:57;;;;;;;7.88;0.32;;;;;;;10.79;100.00;99608.44;7396745;19;20070;-61
2023/11/15 10:50:27;;;;;;;0.43;0.43;;;;;;;10.71;100.00;99607.31;7393629;19;20082;-61
2023/11/15 10:52:54;;;;;;;0.63;0.40;;;;;;;10.87;100.00;99612.38;7394284;19;20010;-61
2023/11/15 10:55:20;;;;;;;1.42;0.57;;;;;;;10.61;100.00;99606.66;7396193;19;20022;-61
2023/11/15 10:57:49;;;;;;;0.10;0.00;;;;;;;10.78;100.00;99612.50;7396104;19;20494;-61
2023/11/15 11:00:20;;;;;;;0.25;0.25;;;;;;;10.61;100.00;99608.69;7392224;19;20505;-61
2023/11/15 11:02:49;;;;;;;;;;;;;;;10.51;100.00;99621.94;7392707;19;20377;-61
2023/11/15 11:05:40;;;;;;;1.17;0.50;;;;;;;10.90;100.00;99608.63;7393382;19;19930;-61
2023/11/15 11:08:35;;;;;;;0.10;0.00;;;;;;;11.26;100.00;99612.97;7391643;19;20010;-61
2023/11/15 11:11:10;;;;;;;0.10;0.10;;;;;;;10.97;100.00;99619.38;7392362;19;20361;-61
2023/11/15 11:13:40;;;;;;;0.90;0.45;;;;;;;11.72;100.00;99624.22;7392736;19;20344;-61
2023/11/15 11:16:26;;;;;;;0.70;0.45;;;;;;;10.97;100.00;99635.31;7392340;19;20014;-60
2023/11/15 11:19:13;;;;;;;0.50;0.30;;;;;;;10.74;100.00;99633.44;7390094;19;20015;-61
2023/11/15 11:22:07;;;;;;;12.25;0.57;;;;;;;10.54;100.00;99632.13;7391131;19;20011;-61
2023/11/15 11:24:45;;;;;;;7.55;0.20;;;;;;;10.52;100.00;99640.19;7390765;19;20045;-60
2023/11/15 11:27:11;;;;;;;0.10;0.00;;;;;;;10.71;100.00;99632.38;7390136;19;20017;-61
2023/11/15 11:30:07;;;;;;;0.20;0.20;;;;;;;11.07;100.00;99645.09;7390380;19;20006;-61
2023/11/15 11:32:35;;;;;;;0.10;0.10;;;;;;;11.13;100.00;99643.91;7388171;19;20418;-61
2023/11/15 11:35:07;;;;;;;0.20;0.20;;;;;;;11.19;100.00;99646.81;7396177;19;20379;-59